Time;durP1;ratioP1;P1;durP2;ratioP2;P2;SDS_P1;SDS_P2;PMS_P1;PMS_P2;Temp;Humidity;BMP_temperature;BMP_pressure;BME280_temperature;BME280_humidity;BME280_pressure;Samples;Min_cycle;Max_cycle;Signal;HPM_P1;HPM_P2
2023/05/20 00:00:11;;;;;;;5.10;2.40;;;;;;;20.33;39.65;102315.50;5007944;28;20040;-75
2023/05/20 00:02:36;;;;;;;5.43;2.92;;;;;;;20.27;39.62;102306.19;5013096;28;20262;-73
2023/05/20 00:05:02;;;;;;;4.28;2.22;;;;;;;20.30;39.49;102308.63;5017414;28;20084;-72
2023/05/20 00:07:27;;;;;;;5.13;2.70;;;;;;;20.27;39.82;102298.25;5019103;28;20030;-73
2023/05/20 00:09:53;;;;;;;4.20;2.20;;;;;;;20.30;39.73;102292.75;5023475;28;20029;-72
2023/05/20 00:12:18;;;;;;;5.50;2.50;;;;;;;20.29;39.49;102293.69;5023489;28;20439;-72
2023/05/20 00:14:43;;;;;;;5.38;2.45;;;;;;;20.28;39.46;102298.13;5013084;28;20053;-73
2023/05/20 00:17:09;;;;;;;5.45;2.10;;;;;;;20.29;39.56;102305.09;5019922;28;20453;-72
2023/05/20 00:19:34;;;;;;;4.63;2.47;;;;;;;20.28;39.55;102306.06;5009749;28;20025;-73
2023/05/20 00:22:00;;;;;;;4.38;2.35;;;;;;;20.28;39.69;102307.84;5004969;28;20034;-72
2023/05/20 00:24:25;;;;;;;6.15;2.60;;;;;;;20.29;39.68;102306.91;5009191;28;20875;-72
2023/05/20 00:26:51;;;;;;;4.60;2.50;;;;;;;20.26;39.61;102307.97;5005724;28;20044;-72
2023/05/20 00:29:16;;;;;;;4.32;2.35;;;;;;;20.26;39.61;102307.97;5010622;28;20523;-73
2023/05/20 00:31:41;;;;;;;4.75;2.60;;;;;;;20.27;39.50;102311.47;5015120;28;20037;-72
2023/05/20 00:34:07;;;;;;;5.15;2.63;;;;;;;20.28;39.90;102303.44;5015132;28;20089;-73
2023/05/20 00:36:33;;;;;;;4.90;2.42;;;;;;;20.25;39.45;102300.13;5003798;28;20038;-72
2023/05/20 00:38:58;;;;;;;5.05;2.70;;;;;;;20.27;39.57;102299.06;5004246;28;20232;-73
2023/05/20 00:41:24;;;;;;;6.47;2.57;;;;;;;20.26;39.61;102300.00;5013774;28;20042;-72
2023/05/20 00:43:55;;;;;;;5.43;2.33;;;;;;;20.18;39.79;102285.63;5009676;28;20771;-73
2023/05/20 00:46:22;;;;;;;5.43;2.35;;;;;;;20.27;39.55;102301.72;5004963;28;20038;-73
2023/05/20 00:48:48;;;;;;;6.47;2.70;;;;;;;20.23;39.78;102297.56;5008040;28;20125;-73
2023/05/20 00:51:14;;;;;;;4.80;2.55;;;;;;;20.24;39.72;102301.09;5019613;28;20040;-72
2023/05/20 00:53:40;;;;;;;4.95;2.63;;;;;;;20.23;39.67;102294.94;5014728;28;20041;-72
2023/05/20 00:56:06;;;;;;;5.72;2.40;;;;;;;20.22;39.77;102292.38;5009102;28;20030;-72
2023/05/20 00:58:32;;;;;;;5.32;2.42;;;;;;;20.21;39.79;102294.19;5009662;28;20034;-71
2023/05/20 01:00:57;;;;;;;5.50;2.50;;;;;;;20.21;39.75;102290.72;5008438;28;20026;-73
2023/05/20 01:03:22;;;;;;;7.13;2.47;;;;;;;20.22;39.71;102290.59;5016594;28;20144;-72
2023/05/20 01:05:48;;;;;;;5.30;2.53;;;;;;;20.22;39.85;102289.72;5008646;28;20259;-73
2023/05/20 01:08:13;;;;;;;4.60;2.40;;;;;;;20.21;39.63;102291.53;5014755;28;20462;-73
2023/05/20 01:10:45;;;;;;;6.68;2.30;;;;;;;20.20;39.92;102287.22;5015996;28;20033;-73
2023/05/20 01:13:15;;;;;;;5.53;2.42;;;;;;;20.21;39.75;102290.72;5008463;28;20044;-72
2023/05/20 01:15:43;;;;;;;5.13;2.33;;;;;;;20.19;39.91;102284.69;5004608;28;20049;-72
2023/05/20 01:18:10;;;;;;;4.38;2.50;;;;;;;20.21;39.60;102291.53;5009952;28;20477;-75
2023/05/20 01:20:36;;;;;;;6.20;2.50;;;;;;;20.20;39.94;102287.22;5011203;28;20823;-74
2023/05/20 01:23:02;;;;;;;5.50;2.40;;;;;;;20.20;39.91;102287.22;5010725;28;20890;-73
2023/05/20 01:25:27;;;;;;;5.25;2.65;;;;;;;20.19;39.89;102277.56;5012686;28;20589;-71
2023/05/20 01:27:56;;;;;;;5.13;2.50;;;;;;;20.21;39.87;102288.06;5004786;28;20026;-73
2023/05/20 01:30:27;;;;;;;5.72;2.65;;;;;;;20.19;39.78;102282.88;5013364;28;20529;-72
2023/05/20 01:33:08;;;;;;;4.70;2.10;;;;;;;20.14;39.89;102290.28;5010125;28;20493;-74
2023/05/20 01:35:34;;;;;;;4.32;2.20;;;;;;;20.18;39.86;102280.31;5020411;28;20033;-73
2023/05/20 01:38:00;;;;;;;5.43;2.55;;;;;;;20.15;39.81;102270.78;5013305;28;20448;-72
2023/05/20 01:40:27;;;;;;;4.30;2.10;;;;;;;20.16;39.79;102275.13;5011177;28;20033;-72
2023/05/20 01:42:54;;;;;;;5.53;2.17;;;;;;;20.14;39.95;102271.75;5020642;28;20144;-73
2023/05/20 01:45:19;;;;;;;4.57;2.67;;;;;;;20.14;39.97;102262.94;5017525;28;20037;-72
2023/05/20 01:47:45;;;;;;;5.88;2.58;;;;;;;20.14;40.05;102269.09;5012923;28;20037;-73
2023/05/20 01:50:10;;;;;;;6.25;2.53;;;;;;;20.14;39.82;102266.47;5018955;28;20029;-73
2023/05/20 01:52:35;;;;;;;6.13;2.70;;;;;;;20.14;39.98;102266.47;5008602;28;20108;-72
2023/05/20 01:55:01;;;;;;;5.00;2.30;;;;;;;20.14;39.75;102268.22;5009458;28;20798;-72
2023/05/20 01:57:26;;;;;;;5.75;3.42;;;;;;;20.15;39.79;102268.13;5013661;28;20033;-72
2023/05/20 01:59:51;;;;;;;5.60;2.40;;;;;;;20.14;40.05;102262.94;5005408;28;20034;-73
2023/05/20 02:02:17;;;;;;;6.22;2.72;;;;;;;20.09;39.88;102255.31;5012661;28;20037;-72
2023/05/20 02:04:46;;;;;;;7.10;2.50;;;;;;;20.14;39.81;102262.94;5016288;28;20058;-73
2023/05/20 02:07:12;;;;;;;4.88;2.45;;;;;;;20.12;40.03;102263.03;5021047;28;20084;-73
2023/05/20 02:09:37;;;;;;;6.00;2.65;;;;;;;20.13;40.08;102261.28;5017464;28;20060;-72
2023/05/20 02:12:03;;;;;;;4.23;2.27;;;;;;;20.11;40.06;102261.38;5000417;28;20088;-71
2023/05/20 02:14:28;;;;;;;4.10;2.15;;;;;;;20.10;39.94;102263.16;5010932;28;21277;-72
2023/05/20 02:16:55;;;;;;;6.75;2.33;;;;;;;20.10;40.03;102265.78;5013854;28;20136;-72
2023/05/20 02:19:22;;;;;;;5.05;2.40;;;;;;;20.10;39.99;102259.66;5016139;28;20129;-72
2023/05/20 02:21:48;;;;;;;5.78;2.35;;;;;;;20.11;40.00;102266.66;5006153;28;20026;-74
2023/05/20 02:24:15;;;;;;;5.05;2.30;;;;;;;20.06;39.93;102256.38;5017023;28;20132;-73
2023/05/20 02:26:40;;;;;;;5.53;2.47;;;;;;;20.03;40.11;102255.75;5018620;28;20461;-72
2023/05/20 02:29:06;;;;;;;5.00;2.50;;;;;;;20.10;40.14;102259.66;5019663;28;20048;-71
2023/05/20 02:31:31;;;;;;;5.15;2.42;;;;;;;20.09;39.97;102250.88;5004159;28;20038;-72
2023/05/20 02:33:56;;;;;;;4.93;2.42;;;;;;;20.06;39.96;102251.09;5006935;28;20385;-72
2023/05/20 02:36:22;;;;;;;5.38;2.25;;;;;;;20.09;40.16;102248.25;5008016;28;20025;-73
2023/05/20 02:38:47;;;;;;;5.43;2.35;;;;;;;20.07;39.74;102246.63;5015600;28;20099;-71
2023/05/20 02:41:12;;;;;;;5.15;2.40;;;;;;;20.08;40.05;102253.63;5008083;28;20129;-71
2023/05/20 02:43:39;;;;;;;4.07;2.30;;;;;;;20.07;39.82;102251.94;5009691;28;20037;-72
2023/05/20 02:46:05;;;;;;;6.22;2.97;;;;;;;20.10;40.01;102262.31;5014639;28;20036;-72
2023/05/20 02:48:30;;;;;;;4.28;2.55;;;;;;;20.08;39.88;102253.63;5009813;28;20038;-74
2023/05/20 02:50:56;;;;;;;5.05;2.53;;;;;;;20.06;40.08;102256.38;5006034;28;20116;-73
2023/05/20 02:53:21;;;;;;;5.53;2.60;;;;;;;20.07;39.91;102252.75;5001344;28;20037;-74
2023/05/20 02:55:47;;;;;;;4.40;2.45;;;;;;;20.06;39.88;102250.22;5010262;28;20048;-74
2023/05/20 02:58:12;;;;;;;4.63;2.33;;;;;;;20.07;40.05;102252.75;5010394;28;20076;-73
2023/05/20 03:00:39;;;;;;;5.03;2.50;;;;;;;20.04;40.23;102247.69;5009887;28;20058;-72
2023/05/20 03:03:06;;;;;;;5.00;2.53;;;;;;;20.04;40.14;102246.84;5020599;28;20029;-74
2023/05/20 03:05:32;;;;;;;5.43;2.53;;;;;;;20.04;40.03;102249.50;5008342;28;20103;-73
2023/05/20 03:07:57;;;;;;;5.00;2.20;;;;;;;20.03;39.90;102245.16;5015895;28;20037;-74
2023/05/20 03:10:22;;;;;;;4.35;2.08;;;;;;;20.04;40.02;102255.63;5003654;28;20061;-73
2023/05/20 03:12:48;;;;;;;4.47;2.50;;;;;;;20.02;40.09;102244.28;5019786;28;20181;-73
2023/05/20 03:15:13;;;;;;;6.75;2.60;;;;;;;20.01;40.01;102247.03;5015607;28;20489;-71
2023/05/20 03:17:38;;;;;;;5.00;2.53;;;;;;;19.97;39.97;102232.34;5008318;28;20444;-72
2023/05/20 03:20:05;;;;;;;5.82;2.95;;;;;;;20.04;40.04;102246.84;5013954;28;20176;-72
2023/05/20 03:22:31;;;;;;;6.47;2.58;;;;;;;20.04;40.14;102252.13;5012245;28;20037;-71
2023/05/20 03:24:57;;;;;;;4.60;2.45;;;;;;;20.01;40.15;102245.28;5018229;28;20394;-72
2023/05/20 03:27:25;;;;;;;5.25;2.22;;;;;;;20.01;40.08;102245.28;5009845;28;20129;-72
2023/05/20 03:29:50;;;;;;;5.93;2.88;;;;;;;20.01;40.23;102247.91;5019139;28;20080;-74
2023/05/20 03:32:15;;;;;;;5.88;2.60;;;;;;;20.01;39.98;102241.75;5008848;28;20026;-72
2023/05/20 03:34:41;;;;;;;4.72;2.58;;;;;;;19.97;40.10;102243.78;5026379;28;20037;-72
2023/05/20 03:37:06;;;;;;;5.85;2.40;;;;;;;20.00;39.83;102242.72;5015313;28;20065;-73
2023/05/20 03:39:32;;;;;;;6.50;2.72;;;;;;;20.00;40.11;102251.50;5011604;28;20030;-73
2023/05/20 03:41:57;;;;;;;5.85;2.70;;;;;;;19.99;39.93;102252.44;5011161;28;20041;-73
2023/05/20 03:44:22;;;;;;;5.78;3.10;;;;;;;19.98;39.95;102241.97;5020606;28;20040;-72
2023/05/20 03:46:47;;;;;;;4.13;2.25;;;;;;;20.00;40.28;102245.38;5019110;28;20033;-73
2023/05/20 03:49:13;;;;;;;7.80;2.70;;;;;;;19.98;40.10;102240.19;5010913;28;20369;-75
2023/05/20 03:51:38;;;;;;;6.00;2.20;;;;;;;19.97;40.24;102240.28;5007265;28;20030;-73
2023/05/20 03:54:03;;;;;;;6.77;3.47;;;;;;;19.98;40.16;102239.31;5010193;28;20117;-74
2023/05/20 03:56:28;;;;;;;4.68;2.55;;;;;;;19.98;40.18;102242.81;5016546;28;20255;-74
2023/05/20 03:58:54;;;;;;;5.80;2.95;;;;;;;19.97;40.33;102240.28;5022969;28;20404;-73
2023/05/20 04:01:20;;;;;;;5.10;2.40;;;;;;;19.95;40.01;102240.38;5010994;28;20037;-71
2023/05/20 04:03:45;;;;;;;4.95;2.28;;;;;;;19.93;40.15;102229.91;5019730;28;20321;-72
2023/05/20 04:06:12;;;;;;;5.25;2.45;;;;;;;19.93;40.14;102235.19;5014642;28;20037;-72
2023/05/20 04:08:38;;;;;;;4.05;2.22;;;;;;;19.96;40.16;102239.41;5012744;28;20029;-73
2023/05/20 04:11:03;;;;;;;6.82;3.00;;;;;;;19.94;40.05;102242.16;5014278;28;20559;-73
2023/05/20 04:13:28;;;;;;;5.32;2.42;;;;;;;19.94;40.17;102244.81;5015161;28;20029;-73
2023/05/20 04:15:53;;;;;;;5.78;2.50;;;;;;;19.93;40.40;102244.91;5021191;28;20057;-72
2023/05/20 04:18:19;;;;;;;7.05;2.60;;;;;;;19.91;40.22;102242.38;5018305;28;20038;-72
2023/05/20 04:20:45;;;;;;;6.10;2.65;;;;;;;19.92;40.34;102245.88;5018694;28;20033;-72
2023/05/20 04:23:10;;;;;;;4.45;2.30;;;;;;;19.92;40.36;102246.72;5009067;28;20341;-72
2023/05/20 04:25:36;;;;;;;6.13;2.50;;;;;;;19.93;40.32;102250.19;5013139;28;20557;-74
2023/05/20 04:28:01;;;;;;;5.68;2.28;;;;;;;19.93;40.58;102248.44;5019482;28;20513;-72
2023/05/20 04:30:26;;;;;;;4.80;2.47;;;;;;;19.92;40.17;102251.19;5012838;28;20045;-73
2023/05/20 04:32:52;;;;;;;5.65;2.30;;;;;;;19.92;40.35;102249.38;5014685;28;20509;-72
2023/05/20 04:35:18;;;;;;;5.78;3.15;;;;;;;19.92;40.49;102249.38;5014255;28;20560;-73
2023/05/20 04:37:46;;;;;;;4.57;2.45;;;;;;;19.91;40.29;102245.00;5007925;28;20113;-72
2023/05/20 04:40:12;;;;;;;8.07;3.13;;;;;;;19.91;40.17;102244.19;5022746;28;20030;-72
2023/05/20 04:42:38;;;;;;;6.53;2.40;;;;;;;19.91;40.33;102242.38;5007499;28;20045;-74
2023/05/20 04:45:04;;;;;;;4.50;2.50;;;;;;;19.92;40.35;102248.53;5017783;28;20037;-72
2023/05/20 04:47:37;;;;;;;5.10;2.38;;;;;;;19.90;40.31;102243.34;5013286;28;20084;-73
2023/05/20 04:50:04;;;;;;;4.68;2.53;;;;;;;19.90;40.44;102242.47;5006585;28;20121;-73
2023/05/20 04:52:30;;;;;;;6.32;2.75;;;;;;;19.89;40.54;102246.09;5009555;28;20037;-73
2023/05/20 04:54:57;;;;;;;4.68;2.67;;;;;;;19.90;40.46;102251.28;5006126;28;20554;-72
2023/05/20 04:57:22;;;;;;;5.38;2.40;;;;;;;19.90;40.57;102245.97;5017704;28;20044;-72
2023/05/20 04:59:47;;;;;;;5.60;2.50;;;;;;;19.90;40.78;102248.63;5016030;28;20025;-72
2023/05/20 05:02:13;;;;;;;5.35;2.30;;;;;;;19.90;40.68;102242.47;5005280;28;20072;-73
2023/05/20 05:04:39;;;;;;;5.45;2.55;;;;;;;19.88;40.48;102241.72;5008514;28;20123;-73
2023/05/20 05:07:04;;;;;;;4.78;2.22;;;;;;;19.90;40.64;102238.03;5016881;28;20041;-72
2023/05/20 05:09:30;;;;;;;5.20;2.67;;;;;;;19.91;40.77;102239.72;5021529;28;20025;-73
2023/05/20 05:11:55;;;;;;;5.55;2.58;;;;;;;19.88;40.55;102237.28;5013522;28;20034;-72
2023/05/20 05:14:21;;;;;;;4.55;2.33;;;;;;;19.87;40.95;102232.13;5019793;28;20470;-74
2023/05/20 05:16:46;;;;;;;5.15;2.30;;;;;;;19.90;40.56;102232.75;5014858;28;20084;-73
2023/05/20 05:19:12;;;;;;;6.15;2.90;;;;;;;19.88;40.66;102234.63;5004514;28;20025;-73
2023/05/20 05:21:37;;;;;;;4.63;2.20;;;;;;;19.89;40.64;102228.41;5009722;28;20083;-73
2023/05/20 05:24:03;;;;;;;5.95;2.53;;;;;;;19.89;40.69;102231.06;5006211;28;20036;-73
2023/05/20 05:26:28;;;;;;;4.53;2.20;;;;;;;19.89;40.83;102230.22;5005227;28;20026;-73
2023/05/20 05:28:54;;;;;;;5.07;2.45;;;;;;;19.89;40.84;102233.69;5006619;28;20029;-74
2023/05/20 05:31:19;;;;;;;4.50;2.35;;;;;;;19.90;40.62;102237.19;5005229;28;21214;-72
2023/05/20 05:33:44;;;;;;;5.10;2.38;;;;;;;19.88;40.83;102242.56;5018870;28;20398;-72
2023/05/20 05:36:10;;;;;;;4.20;2.28;;;;;;;19.86;40.85;102231.25;5004547;28;20087;-72
2023/05/20 05:38:35;;;;;;;6.03;2.40;;;;;;;19.83;40.95;102231.44;5006141;28;20034;-72
2023/05/20 05:41:01;;;;;;;5.63;2.40;;;;;;;19.81;41.03;102228.06;5013550;28;20401;-72
2023/05/20 05:43:26;;;;;;;5.20;2.22;;;;;;;19.82;41.09;102234.19;5014512;28;20396;-73
2023/05/20 05:45:51;;;;;;;4.57;2.00;;;;;;;19.83;40.87;102226.16;5010977;28;20069;-72
2023/05/20 05:48:16;;;;;;;4.65;2.42;;;;;;;19.84;40.88;102225.22;5013228;28;20033;-72
2023/05/20 05:50:45;;;;;;;4.00;2.05;;;;;;;19.83;41.23;102218.22;5012923;28;20042;-72
2023/05/20 05:53:11;;;;;;;4.20;2.13;;;;;;;19.87;40.96;102225.03;5009987;28;20112;-72
2023/05/20 05:55:36;;;;;;;4.75;2.45;;;;;;;19.89;40.94;102228.41;5003011;28;20125;-72
2023/05/20 05:58:01;;;;;;;4.40;2.40;;;;;;;19.92;41.06;102230.84;5018906;28;20037;-72
2023/05/20 06:00:27;;;;;;;4.88;2.50;;;;;;;19.92;41.01;102227.34;5016291;28;20470;-74
2023/05/20 06:02:52;;;;;;;6.20;2.30;;;;;;;19.93;41.10;102232.56;5011536;28;20044;-71
2023/05/20 06:05:17;;;;;;;5.68;2.63;;;;;;;19.94;40.99;102226.28;5014239;28;20045;-72
2023/05/20 06:07:43;;;;;;;5.25;2.28;;;;;;;19.92;41.03;102230.84;5010714;28;20037;-72
2023/05/20 06:10:09;;;;;;;4.75;2.15;;;;;;;19.94;41.06;102233.38;5012234;28;20087;-72
2023/05/20 06:12:34;;;;;;;5.53;2.55;;;;;;;19.94;41.07;102233.38;5020883;28;20545;-74
2023/05/20 06:14:59;;;;;;;4.80;2.28;;;;;;;19.92;41.16;102227.34;5009932;28;20057;-73
2023/05/20 06:17:25;;;;;;;5.32;2.53;;;;;;;19.91;41.15;102221.19;5012655;28;20120;-73
2023/05/20 06:19:50;;;;;;;5.25;2.28;;;;;;;19.90;40.95;102210.72;5012414;28;20033;-73
2023/05/20 06:22:15;;;;;;;4.50;2.60;;;;;;;19.93;40.97;102224.63;5006374;28;20478;-72
2023/05/20 06:24:41;;;;;;;4.80;2.35;;;;;;;19.96;41.17;102217.41;5014410;28;20076;-73
2023/05/20 06:27:06;;;;;;;4.68;2.63;;;;;;;19.94;41.14;102212.22;5012607;28;20065;-72
2023/05/20 06:29:31;;;;;;;5.43;2.40;;;;;;;19.90;41.14;102208.94;5012297;28;20044;-73
2023/05/20 06:31:56;;;;;;;5.50;2.42;;;;;;;19.87;41.30;102208.31;5006420;28;20266;-74
2023/05/20 06:34:22;;;;;;;4.55;2.35;;;;;;;19.90;41.34;102206.28;5010142;28;20037;-73
2023/05/20 06:36:47;;;;;;;4.15;2.13;;;;;;;19.89;41.44;102204.59;5010570;28;20033;-73
2023/05/20 06:39:12;;;;;;;6.27;2.50;;;;;;;19.85;41.98;102203.13;5017343;28;20071;-74
2023/05/20 06:41:38;;;;;;;4.35;2.28;;;;;;;19.82;42.04;102200.69;5015196;28;20285;-71
2023/05/20 06:44:05;;;;;;;5.55;2.30;;;;;;;19.81;42.26;102203.44;5012149;28;20038;-69
2023/05/20 06:46:30;;;;;;;5.00;2.22;;;;;;;19.77;42.58;102199.28;5013434;28;20025;-69
2023/05/20 06:48:55;;;;;;;5.00;2.42;;;;;;;19.73;42.76;102194.16;5011269;28;20053;-73
2023/05/20 06:51:21;;;;;;;4.85;2.40;;;;;;;19.78;42.81;102203.63;5008973;28;20125;-73
2023/05/20 06:53:46;;;;;;;6.07;2.38;;;;;;;19.79;43.24;102197.38;5012821;28;20040;-73
2023/05/20 06:56:12;;;;;;;4.35;2.10;;;;;;;19.76;43.48;102190.50;5012052;28;20064;-70
2023/05/20 06:58:37;;;;;;;4.85;2.25;;;;;;;19.75;43.42;102186.97;5011991;28;20036;-74
2023/05/20 07:01:02;;;;;;;5.28;2.22;;;;;;;19.80;43.66;102189.34;5013170;28;20056;-75
2023/05/20 07:03:28;;;;;;;4.97;2.17;;;;;;;19.79;43.43;102190.31;5016772;28;20060;-73
2023/05/20 07:05:53;;;;;;;6.10;2.17;;;;;;;19.82;43.44;102182.16;5017312;28;20045;-73
2023/05/20 07:08:18;;;;;;;5.10;2.17;;;;;;;19.81;43.54;102179.63;5014028;28;20063;-71
2023/05/20 07:10:45;;;;;;;4.38;2.25;;;;;;;19.84;43.45;102187.34;5012297;28;20042;-73
2023/05/20 07:13:10;;;;;;;4.35;2.25;;;;;;;19.82;43.77;102184.81;5013908;28;20034;-73
2023/05/20 07:15:36;;;;;;;6.07;2.30;;;;;;;19.83;43.75;102185.66;5011231;28;20076;-69
2023/05/20 07:18:01;;;;;;;6.28;2.20;;;;;;;19.85;43.74;102176.66;5014195;28;20038;-73
2023/05/20 07:20:26;;;;;;;7.88;2.38;;;;;;;19.85;44.37;102189.91;5011489;28;20044;-73
2023/05/20 07:22:51;;;;;;;5.55;2.35;;;;;;;19.85;44.29;102174.03;5009330;28;20040;-73
2023/05/20 07:25:17;;;;;;;4.82;2.22;;;;;;;19.83;44.55;102178.53;5009573;28;20073;-73
2023/05/20 07:27:42;;;;;;;7.72;2.28;;;;;;;19.84;44.54;102174.97;5014761;28;20052;-74
2023/05/20 07:30:08;;;;;;;8.10;2.58;;;;;;;19.80;44.58;102170.81;5013337;28;20033;-74
2023/05/20 07:32:33;;;;;;;6.13;2.20;;;;;;;19.80;44.80;102164.69;5013536;28;20073;-74
2023/05/20 07:34:59;;;;;;;4.05;1.98;;;;;;;19.81;44.94;102174.34;5014939;28;20042;-72
2023/05/20 07:37:24;;;;;;;4.97;2.20;;;;;;;19.83;44.98;102172.41;5009543;28;20454;-72
2023/05/20 07:39:50;;;;;;;5.63;2.53;;;;;;;19.82;44.91;102154.84;5012947;28;20040;-73
2023/05/20 07:42:15;;;;;;;4.43;1.92;;;;;;;19.89;44.57;102161.41;5011213;28;20052;-73
2023/05/20 07:44:40;;;;;;;5.80;2.05;;;;;;;19.89;44.64;102166.72;5016225;28;20037;-73
2023/05/20 07:47:06;;;;;;;5.68;3.08;;;;;;;19.86;44.56;102169.56;5009817;28;20569;-70
2023/05/20 07:49:31;;;;;;;5.50;2.60;;;;;;;19.85;44.98;102168.72;5020958;28;20056;-72
2023/05/20 07:51:57;;;;;;;7.13;2.17;;;;;;;19.83;44.77;102161.84;5008547;28;20381;-74
2023/05/20 07:54:22;;;;;;;3.78;2.10;;;;;;;19.87;44.55;102164.16;5011868;28;20358;-72
2023/05/20 07:56:47;;;;;;;6.05;2.30;;;;;;;19.89;44.41;102162.25;5013859;28;20390;-75
2023/05/20 07:59:13;;;;;;;6.60;2.30;;;;;;;20.05;44.19;102154.13;5018868;28;20694;-71
2023/05/20 08:01:40;;;;;;;4.50;2.15;;;;;;;20.17;43.74;102159.50;5008677;28;20030;-72
2023/05/20 08:04:05;;;;;;;4.68;2.20;;;;;;;20.23;43.62;102151.16;5002837;28;20064;-70
2023/05/20 08:06:31;;;;;;;4.73;2.20;;;;;;;20.25;43.63;102157.16;5012528;28;20064;-70
2023/05/20 08:08:56;;;;;;;8.50;2.20;;;;;;;20.21;43.71;102151.25;5016737;28;20321;-70
2023/05/20 08:11:22;;;;;;;5.25;1.83;;;;;;;20.23;43.65;102149.34;5012208;28;20941;-67
2023/05/20 08:13:47;;;;;;;6.03;1.95;;;;;;;20.27;43.57;102142.88;5008671;28;20036;-71
2023/05/20 08:16:13;;;;;;;5.13;2.10;;;;;;;20.30;43.43;102150.63;5002211;28;20457;-71
2023/05/20 08:18:38;;;;;;;10.88;2.08;;;;;;;20.31;43.55;102151.47;5011813;28;20377;-67
2023/05/20 08:21:06;;;;;;;4.68;1.90;;;;;;;20.35;43.34;102137.06;5021081;28;20064;-68
2023/05/20 08:23:32;;;;;;;3.90;1.92;;;;;;;20.38;43.26;102150.09;5021321;28;20033;-73
2023/05/20 08:26:01;;;;;;;4.80;2.13;;;;;;;20.34;43.19;102140.66;5003860;28;20161;-71
2023/05/20 08:28:26;;;;;;;5.70;2.40;;;;;;;20.34;43.21;102138.00;5015489;28;20033;-70
2023/05/20 08:30:52;;;;;;;8.55;2.05;;;;;;;20.32;43.29;102139.09;5012181;28;20033;-70
2023/05/20 08:33:18;;;;;;;5.15;2.00;;;;;;;20.37;42.99;102134.31;5014755;28;20034;-68
2023/05/20 08:35:43;;;;;;;5.45;2.03;;;;;;;20.39;43.18;102135.03;5010026;28;20553;-71
2023/05/20 08:38:09;;;;;;;6.20;1.90;;;;;;;20.39;43.34;102122.63;5018542;28;20060;-72
2023/05/20 08:40:35;;;;;;;8.07;2.33;;;;;;;20.43;43.09;102128.59;5007403;28;20033;-68
2023/05/20 08:43:01;;;;;;;4.82;1.98;;;;;;;20.44;42.86;102133.78;5013203;28;20037;-66
2023/05/20 08:45:31;;;;;;;6.28;1.85;;;;;;;20.44;42.82;102119.66;5011250;28;20370;-74
2023/05/20 08:47:57;;;;;;;4.72;1.98;;;;;;;20.45;42.82;102116.91;5005586;28;20044;-70
2023/05/20 08:50:22;;;;;;;4.40;2.10;;;;;;;20.47;42.91;102122.09;5013040;28;20324;-71
2023/05/20 08:52:48;;;;;;;4.95;2.00;;;;;;;20.44;43.01;102122.31;5007991;28;20120;-70
2023/05/20 08:55:25;;;;;;;5.05;1.75;;;;;;;20.48;42.93;102118.50;5013053;28;20037;-68
2023/05/20 08:57:53;;;;;;;6.05;2.17;;;;;;;20.47;42.81;102115.00;5009157;28;20040;-68
2023/05/20 09:00:22;;;;;;;4.60;1.67;;;;;;;20.49;42.60;102122.84;5019943;28;20029;-69
2023/05/20 09:02:48;;;;;;;6.07;1.90;;;;;;;20.48;42.92;102116.69;5014328;28;20033;-67
2023/05/20 09:05:13;;;;;;;7.78;1.70;;;;;;;20.52;42.78;102122.63;5001816;28;20034;-68
2023/05/20 09:07:41;;;;;;;5.68;2.13;;;;;;;20.54;42.54;102117.22;5010084;28;20045;-72
2023/05/20 09:10:07;;;;;;;6.70;2.00;;;;;;;20.55;42.69;102110.97;5020046;28;20474;-72
2023/05/20 09:12:32;;;;;;;5.72;2.03;;;;;;;20.54;42.71;102111.94;5011174;28;20501;-69
2023/05/20 09:14:58;;;;;;;5.10;1.88;;;;;;;20.54;42.91;102111.94;5008931;28;20058;-70
2023/05/20 09:17:23;;;;;;;4.13;1.85;;;;;;;20.51;42.86;102099.75;5002835;28;20450;-69
2023/05/20 09:19:50;;;;;;;5.38;1.90;;;;;;;20.52;42.71;102105.88;5002629;28;20124;-69
2023/05/20 09:22:24;;;;;;;4.55;1.98;;;;;;;20.50;42.95;102107.78;5008193;28;21411;-69
2023/05/20 09:24:53;;;;;;;3.75;1.77;;;;;;;20.48;42.55;102100.81;5003067;28;20046;-69
2023/05/20 09:27:20;;;;;;;3.53;1.80;;;;;;;20.51;42.78;102102.41;5007273;28;20477;-68
2023/05/20 09:29:52;;;;;;;5.25;2.00;;;;;;;20.54;42.98;102104.00;5016395;28;20120;-69
2023/05/20 09:32:22;;;;;;;3.70;1.85;;;;;;;20.45;42.64;102085.13;5015656;28;20034;-69
2023/05/20 09:34:48;;;;;;;4.32;1.88;;;;;;;20.54;42.56;102094.22;5010201;28;20030;-68
2023/05/20 09:37:16;;;;;;;3.78;1.83;;;;;;;20.56;42.77;102088.81;5012049;28;20037;-69
2023/05/20 09:40:06;;;;;;;4.18;1.63;;;;;;;20.56;42.64;102092.31;5015616;28;20484;-69
2023/05/20 09:42:41;;;;;;;4.97;1.88;;;;;;;20.55;42.64;102093.25;5007132;28;20393;-71
2023/05/20 09:45:10;;;;;;;4.97;2.03;;;;;;;20.58;42.81;102098.34;5016572;28;20040;-73
2023/05/20 09:47:39;;;;;;;4.50;1.70;;;;;;;20.55;42.75;102098.56;5009345;28;20532;-70
2023/05/20 09:50:07;;;;;;;3.22;1.50;;;;;;;20.60;42.63;102100.88;5014746;28;20060;-69
2023/05/20 09:52:35;;;;;;;4.18;1.80;;;;;;;20.54;42.63;102098.69;4999643;28;20034;-68
2023/05/20 09:55:04;;;;;;;4.65;1.83;;;;;;;20.56;42.64;102096.78;5003882;28;20116;-68
2023/05/20 09:57:32;;;;;;;6.07;2.05;;;;;;;20.58;42.88;102093.03;5020355;28;20466;-68
2023/05/20 09:59:57;;;;;;;3.63;1.70;;;;;;;20.60;42.68;102098.22;5020255;28;20064;-69
2023/05/20 10:02:23;;;;;;;4.47;1.90;;;;;;;20.56;42.92;102084.38;5020066;28;20037;-69
2023/05/20 10:04:51;;;;;;;4.57;2.10;;;;;;;20.60;42.52;102084.97;5003315;28;20293;-68
2023/05/20 10:08:02;;;;;;;3.95;1.70;;;;;;;20.58;42.69;102079.78;5012061;28;20029;-69
2023/05/20 10:10:27;;;;;;;5.25;1.90;;;;;;;20.59;42.42;102070.91;5000683;28;20144;-69
2023/05/20 10:13:15;;;;;;;4.10;2.00;;;;;;;20.60;42.35;102080.56;5019792;28;20999;-70
2023/05/20 10:15:52;;;;;;;3.30;1.73;;;;;;;20.58;42.57;102065.72;5009937;28;20608;-69
2023/05/20 10:18:46;;;;;;;6.43;2.00;;;;;;;20.59;42.59;102073.56;5000975;28;20073;-68
2023/05/20 10:21:16;;;;;;;3.90;1.60;;;;;;;20.59;42.80;102070.06;5002720;28;20643;-69
2023/05/20 10:23:41;;;;;;;4.88;1.70;;;;;;;20.62;42.74;102064.56;5009815;28;20492;-70
2023/05/20 10:26:07;;;;;;;4.03;1.70;;;;;;;20.55;42.94;102061.47;5001133;28;20033;-71
2023/05/20 10:28:37;;;;;;;4.50;2.00;;;;;;;20.55;42.76;102058.81;5000765;28;20034;-69
2023/05/20 10:31:14;;;;;;;4.40;1.60;;;;;;;20.58;42.66;102052.47;5005273;28;20064;-69
2023/05/20 10:33:42;;;;;;;3.92;1.80;;;;;;;20.68;42.42;102050.03;5014742;28;20531;-70
2023/05/20 10:36:07;;;;;;;3.92;1.92;;;;;;;20.69;42.46;102049.91;5013443;28;20385;-69
2023/05/20 10:38:32;;;;;;;3.70;1.92;;;;;;;20.76;42.64;102040.56;5015753;28;20033;-72
2023/05/20 10:41:07;;;;;;;3.20;1.80;;;;;;;20.74;42.51;102049.56;5020633;28;20033;-70
2023/05/20 10:43:33;;;;;;;6.78;1.70;;;;;;;20.79;42.41;102039.47;5020125;28;20489;-70
2023/05/20 10:45:58;;;;;;;4.28;1.77;;;;;;;20.82;42.30;102029.53;5016757;28;20068;-72
2023/05/20 10:48:26;;;;;;;6.68;1.70;;;;;;;20.81;42.40;102042.88;5012797;28;20040;-69
2023/05/20 10:50:56;;;;;;;4.80;1.80;;;;;;;20.81;42.51;102042.88;5008871;28;20037;-70
2023/05/20 10:53:23;;;;;;;7.43;2.00;;;;;;;20.76;42.36;102051.16;5023813;28;20033;-69
2023/05/20 10:55:51;;;;;;;7.35;2.17;;;;;;;20.78;42.58;102043.09;5004119;28;20069;-69
2023/05/20 10:58:18;;;;;;;5.57;1.88;;;;;;;20.78;42.15;102032.50;5009388;28;20040;-70
2023/05/20 11:00:44;;;;;;;5.97;2.08;;;;;;;20.76;42.46;102039.72;5017279;28;20970;-70
2023/05/20 11:03:11;;;;;;;4.43;1.85;;;;;;;20.73;42.69;102030.19;5012773;28;20041;-69
2023/05/20 11:05:38;;;;;;;5.05;1.75;;;;;;;20.72;42.79;102025.84;5010334;28;20256;-69
2023/05/20 11:08:06;;;;;;;4.88;1.88;;;;;;;20.70;42.95;102024.28;5007375;28;20402;-68
2023/05/20 11:10:33;;;;;;;5.35;1.98;;;;;;;20.69;42.89;102023.41;5016696;28;20036;-68
2023/05/20 11:13:00;;;;;;;7.57;2.20;;;;;;;20.71;42.94;102024.19;5018512;28;20385;-68
2023/05/20 11:15:25;;;;;;;7.13;2.22;;;;;;;20.67;42.83;102016.56;5014786;28;20077;-67
2023/05/20 11:17:54;;;;;;;5.63;2.20;;;;;;;20.68;42.84;102019.09;5008548;28;20115;-67
2023/05/20 11:20:22;;;;;;;4.07;1.83;;;;;;;20.72;42.87;102022.38;5006154;28;20045;-68